Observation data for Guthrie on 12/08/2018      Previous  Date       Current Mesonet Observations  Soil Data  Daily Summary Page  Observations in Plain Language
KPFS 080600Z 00011G16KT 00/01 A3029 RMK A01 T00-000-7  RH  096%=      5-min Rain = 0
KPFS 080605Z 00011G16KT M00/M01 A3029 RMK A01 T10011007  RH  096%=      5-min Rain = 0.01
KPFS 080610Z 01011G16KT M00/M01 A3029 RMK A01 T10011007  RH  096%=      5-min Rain = 0.01
KPFS 080615Z 00011KT M00/M01 A3028 RMK A01 T10011007  RH  096%=      5-min Rain = 0.01
KPFS 080620Z 01010KT M00/M01 A3028 RMK A01 T10011007  RH  097%=      5-min Rain = 0.01
KPFS 080625Z 01011G16KT M00/M01 A3027 RMK A01 T10011007  RH  097%=      5-min Rain = 0.01
KPFS 080630Z 01011G16KT M00/M01 A3027 RMK A01 T10011007  RH  097%=      5-min Rain = 0.01
KPFS 080635Z 00011KT M00/M01 A3027 RMK A01 T10011007  RH  097%=      5-min Rain = 0
KPFS 080640Z 01011G16KT M00/M01 A3027 RMK A01 T10011007  RH  097%=      5-min Rain = 0
KPFS 080645Z 00012G19KT M00/M01 A3027 RMK A01 T10011007  RH  096%=      5-min Rain = 0.02
KPFS 080650Z 00012KT M00/M01 A3027 RMK A01 T10011007  RH  096%=      5-min Rain = 0
KPFS 080655Z 00012KT M00/M01 A3027 RMK A01 T10011007  RH  096%=      5-min Rain = 0
KPFS 080700Z 36011G16KT 00/01 A3028 RMK A01 T00-000-7  RH  097%=      5-min Rain = 0
KPFS 080705Z 36010G15KT 00/01 A3028 RMK A01 T00-000-7  RH  096%=      5-min Rain = 0.01
KPFS 080710Z 35009KT 00/01 A3029 RMK A01 T00-000-6  RH  097%=      5-min Rain = 0.01
KPFS 080715Z 36009KT 00/01 A3029 RMK A01 T00-000-7  RH  097%=      5-min Rain = 0
KPFS 080720Z 00010KT 00/01 A3029 RMK A01 T00-000-7  RH  096%=      5-min Rain = 0.01
KPFS 080725Z 00011KT 00/01 A3029 RMK A01 T00-000-7  RH  096%=      5-min Rain = 0.01
KPFS 080730Z 00009G14KT 00/01 A3029 RMK A01 T00-000-7  RH  096%=      5-min Rain = 0.01
KPFS 080735Z 00009KT 00/01 A3029 RMK A01 T00-000-7  RH  096%=      5-min Rain = 0.01
KPFS 080740Z 01008KT 00/01 A3029 RMK A01 T00-000-7  RH  096%=      5-min Rain = 0.01
KPFS 080745Z 01009KT 00/01 A3028 RMK A01 T00-000-7  RH  096%=      5-min Rain = 0
KPFS 080750Z 00007G12KT 00/01 A3028 RMK A01 T000000-6  RH  097%=      5-min Rain = 0.01
KPFS 080755Z 00008KT 00/01 A3028 RMK A01 T00-000-6  RH  097%=      5-min Rain = 0
KPFS 080800Z 00008KT 00/01 A3028 RMK A01 T00-000-7  RH  097%=      5-min Rain = 0.01
KPFS 080805Z 01009KT M00/M01 A3028 RMK A01 T10011007  RH  097%=      5-min Rain = 0
KPFS 080810Z 01009KT M00/M01 A3028 RMK A01 T10011007  RH  097%=      5-min Rain = 0.01
KPFS 080815Z 01010KT M00/M01 A3028 RMK A01 T10011007  RH  097%=      5-min Rain = 0
KPFS 080820Z 00010KT 00/01 A3027 RMK A01 T00-000-7  RH  097%=      5-min Rain = 0
KPFS 080825Z 00009KT 00/01 A3027 RMK A01 T00-000-7  RH  097%=      5-min Rain = 0.01
KPFS 080830Z 00009KT 00/01 A3027 RMK A01 T00-000-6  RH  097%=      5-min Rain = 0.01
KPFS 080835Z 00009KT 00/01 A3027 RMK A01 T00-000-6  RH  097%=      5-min Rain = 0
KPFS 080840Z 36008KT 00/01 A3027 RMK A01 T00-000-6  RH  097%=      5-min Rain = 0
KPFS 080845Z 36007KT 00/01 A3028 RMK A01 T000000-6  RH  097%=      5-min Rain = 0
KPFS 080850Z 00007KT 00/01 A3028 RMK A01 T000000-6  RH  097%=      5-min Rain = 0.01
KPFS 080855Z 00010KT 00/01 A3027 RMK A01 T00-000-6  RH  097%=      5-min Rain = 0
KPFS 080900Z 00011KT M00/M01 A3027 RMK A01 T10011007  RH  097%=      5-min Rain = 0
KPFS 080905Z 01012KT M00/M01 A3027 RMK A01 T10011007  RH  097%=      5-min Rain = 0
KPFS 080910Z 01010G15KT M00/M01 A3027 RMK A01 T10011007  RH  097%=      5-min Rain = 0
KPFS 080915Z 01010KT M00/M01 A3027 RMK A01 T10011007  RH  097%=      5-min Rain = 0
KPFS 080920Z 00008KT M00/M01 A3027 RMK A01 T10011007  RH  097%=      5-min Rain = 0
KPFS 080925Z 36008G13KT M00/M01 A3027 RMK A01 T10011007  RH  097%=      5-min Rain = 0
KPFS 080930Z 00009G15KT M00/M01 A3027 RMK A01 T10011007  RH  097%=      5-min Rain = 0
KPFS 080935Z 36009KT M00/M01 A3027 RMK A01 T10021008  RH  097%=      5-min Rain = 0
KPFS 080940Z 00011G17KT M00/M01 A3027 RMK A01 T10021008  RH  097%=      5-min Rain = 0
KPFS 080945Z 01010KT M00/M01 A3027 RMK A01 T10021008  RH  097%=      5-min Rain = 0
KPFS 080950Z 00010G16KT M00/M01 A3027 RMK A01 T10031009  RH  097%=      5-min Rain = 0
KPFS 080955Z 00012KT M00/M01 A3027 RMK A01 T10041010  RH  097%=      5-min Rain = 0
KPFS 081000Z 00011G17KT M00/M01 A3027 RMK A01 T10041010  RH  097%=      5-min Rain = 0
KPFS 081005Z 00012G17KT M01/M01 A3026 RMK A01 T10051010  RH  097%=      5-min Rain = 0
KPFS 081010Z 00010KT M01/M01 A3026 RMK A01 T10051011  RH  097%=      5-min Rain = 0
KPFS 081015Z 00009KT M01/M01 A3026 RMK A01 T10051011  RH  097%=      5-min Rain = 0
KPFS 081020Z 01008KT M01/M01 A3026 RMK A01 T10051010  RH  097%=      5-min Rain = 0
KPFS 081025Z 01009KT M01/M01 A3026 RMK A01 T10051010  RH  097%=      5-min Rain = 0
KPFS 081030Z 01010G15KT M01/M01 A3025 RMK A01 T10051010  RH  097%=      5-min Rain = 0
KPFS 081035Z 01010KT M01/M01 A3025 RMK A01 T10051010  RH  097%=      5-min Rain = 0
KPFS 081040Z 01010KT M01/M01 A3025 RMK A01 T10051011  RH  097%=      5-min Rain = 0
KPFS 081045Z 00011G16KT M01/M01 A3025 RMK A01 T10051011  RH  097%=      5-min Rain = 0
KPFS 081050Z 00011KT M01/M01 A3025 RMK A01 T10061011  RH  097%=      5-min Rain = 0
KPFS 081055Z 00010G15KT M01/M01 A3025 RMK A01 T10061011  RH  097%=      5-min Rain = 0
KPFS 081100Z 00009G14KT M01/M01 A3025 RMK A01 T10071012  RH  097%=      5-min Rain = 0
KPFS 081105Z 01011KT M01/M01 A3025 RMK A01 T10071012  RH  097%=      5-min Rain = 0
KPFS 081110Z 00009KT M01/M01 A3026 RMK A01 T10071012  RH  097%=      5-min Rain = 0
KPFS 081115Z 00010KT M01/M01 A3026 RMK A01 T10081012  RH  097%=      5-min Rain = 0
KPFS 081120Z 01011KT M01/M01 A3026 RMK A01 T10081013  RH  097%=      5-min Rain = 0
KPFS 081125Z 01011KT M01/M01 A3026 RMK A01 T10081013  RH  097%=      5-min Rain = 0
KPFS 081130Z 00009G14KT M01/M01 A3026 RMK A01 T10091014  RH  097%=      5-min Rain = 0
KPFS 081135Z 01010G15KT M01/M01 A3026 RMK A01 T10091014  RH  097%=      5-min Rain = 0
KPFS 081140Z 01009G14KT M01/M02 A3027 RMK A01 T10101015  RH  097%=      5-min Rain = 0
KPFS 081145Z 01010KT M01/M02 A3027 RMK A01 T10101015  RH  097%=      5-min Rain = 0
KPFS 081150Z 00008G13KT M01/M02 A3027 RMK A01 T10101015  RH  097%=      5-min Rain = 0
KPFS 081155Z 36008KT M01/M02 A3027 RMK A01 T10101015  RH  097%=      5-min Rain = 0
KPFS 081200Z 00009KT M01/M02 A3027 RMK A01 T10111015  RH  097%=      5-min Rain = 0
KPFS 081205Z 36010KT M01/M02 A3027 RMK A01 T10111016  RH  097%=      5-min Rain = 0
KPFS 081210Z 36011KT M01/M02 A3027 RMK A01 T10111016  RH  097%=      5-min Rain = 0
KPFS 081215Z 00009KT M01/M02 A3027 RMK A01 T10111016  RH  097%=      5-min Rain = 0
KPFS 081220Z 36009KT M01/M02 A3027 RMK A01 T10111016  RH  097%=      5-min Rain = 0
KPFS 081225Z 36010KT M01/M02 A3028 RMK A01 T10111016  RH  097%=      5-min Rain = 0
KPFS 081230Z 36009KT M01/M02 A3028 RMK A01 T10111016  RH  097%=      5-min Rain = 0
KPFS 081235Z 36009KT M01/M02 A3028 RMK A01 T10121017  RH  097%=      5-min Rain = 0
KPFS 081240Z 00009G14KT M01/M02 A3028 RMK A01 T10121017  RH  097%=      5-min Rain = 0
KPFS 081245Z 00009KT M01/M02 A3028 RMK A01 T10121017  RH  097%=      5-min Rain = 0
KPFS 081250Z 00010KT M01/M02 A3028 RMK A01 T10121017  RH  097%=      5-min Rain = 0
KPFS 081255Z 00008KT M01/M02 A3028 RMK A01 T10131017  RH  097%=      5-min Rain = 0
KPFS 081300Z 00010KT M01/M02 A3028 RMK A01 T10131018  RH  097%=      5-min Rain = 0
KPFS 081305Z 01011G16KT M01/M02 A3028 RMK A01 T10131018  RH  097%=      5-min Rain = 0
KPFS 081310Z 01011KT M01/M02 A3028 RMK A01 T10131018  RH  097%=      5-min Rain = 0
KPFS 081315Z 00010G15KT M01/M02 A3028 RMK A01 T10131018  RH  097%=      5-min Rain = 0
KPFS 081320Z 00009KT M01/M02 A3029 RMK A01 T10131018  RH  097%=      5-min Rain = 0
KPFS 081325Z 36008KT M01/M02 A3029 RMK A01 T10131018  RH  097%=      5-min Rain = 0
KPFS 081330Z 36007KT M01/M02 A303 RMK A01 T10131018  RH  097%=      5-min Rain = 0
KPFS 081335Z 35007KT M01/M02 A303 RMK A01 T10131018  RH  097%=      5-min Rain = 0
KPFS 081340Z 35007KT M01/M02 A303 RMK A01 T10131018  RH  097%=      5-min Rain = 0
KPFS 081345Z 35006G11KT M01/M02 A303 RMK A01 T10131018  RH  097%=      5-min Rain = 0
KPFS 081350Z 35008KT M01/M02 A303 RMK A01 T10131018  RH  097%=      5-min Rain = 0
KPFS 081355Z 35007KT M01/M02 A3031 RMK A01 T10131018  RH  097%=      5-min Rain = 0
KPFS 081400Z 35007KT M01/M02 A3031 RMK A01 T10131018  RH  097%=      5-min Rain = 0
KPFS 081405Z 35007KT M01/M02 A3031 RMK A01 T10131018  RH  097%=      5-min Rain = 0
KPFS 081410Z 35008KT M01/M02 A3031 RMK A01 T10131018  RH  097%=      5-min Rain = 0
KPFS 081415Z 35009KT M01/M02 A3031 RMK A01 T10131018  RH  097%=      5-min Rain = 0
KPFS 081420Z 35009KT M01/M02 A3031 RMK A01 T10131019  RH  097%=      5-min Rain = 0
KPFS 081425Z 36007KT M01/M02 A3031 RMK A01 T10131019  RH  097%=      5-min Rain = 0
KPFS 081430Z 36007KT M01/M02 A3032 RMK A01 T10131019  RH  097%=      5-min Rain = 0
KPFS 081435Z 36008KT M01/M02 A3032 RMK A01 T10131018  RH  097%=      5-min Rain = 0
KPFS 081440Z 00007KT M01/M02 A3032 RMK A01 T10131018  RH  097%=      5-min Rain = 0
KPFS 081445Z 00007KT M01/M02 A3032 RMK A01 T10131018  RH  097%=      5-min Rain = 0
KPFS 081450Z 36007KT M01/M02 A3032 RMK A01 T10131018  RH  097%=      5-min Rain = 0
KPFS 081455Z 35007KT M01/M02 A3032 RMK A01 T10131018  RH  097%=      5-min Rain = 0
KPFS 081500Z 36008KT M01/M02 A3032 RMK A01 T10131018  RH  097%=      5-min Rain = 0
KPFS 081505Z 36009KT M01/M02 A3032 RMK A01 T10131018  RH  097%=      5-min Rain = 0
KPFS 081510Z 36008KT M01/M02 A3033 RMK A01 T10131018  RH  097%=      5-min Rain = 0
KPFS 081515Z 36009KT M01/M02 A3033 RMK A01 T10131018  RH  097%=      5-min Rain = 0
KPFS 081520Z 35011G16KT M01/M02 A3033 RMK A01 T10131018  RH  097%=      5-min Rain = 0
KPFS 081525Z 01013KT M01/M02 A3033 RMK A01 T10141019  RH  097%=      5-min Rain = 0
KPFS 081530Z 01013KT M02/M02 A3033 RMK A01 T10171022  RH  097%=      5-min Rain = 0
KPFS 081535Z 01011KT M02/M02 A3034 RMK A01 T10191024  RH  097%=      5-min Rain = 0
KPFS 081540Z 01011KT M02/M02 A3034 RMK A01 T10191024  RH  097%=      5-min Rain = 0
KPFS 081545Z 01011KT M02/M02 A3034 RMK A01 T10181024  RH  097%=      5-min Rain = 0
KPFS 081550Z 00010KT M02/M02 A3034 RMK A01 T10181023  RH  097%=      5-min Rain = 0
KPFS 081555Z 00010KT M02/M02 A3034 RMK A01 T10171023  RH  097%=      5-min Rain = 0
KPFS 081600Z 36010KT M02/M02 A3034 RMK A01 T10171022  RH  097%=      5-min Rain = 0
KPFS 081605Z 36010KT M02/M02 A3034 RMK A01 T10171022  RH  097%=      5-min Rain = 0
KPFS 081610Z 36010KT M02/M02 A3034 RMK A01 T10161022  RH  097%=      5-min Rain = 0
KPFS 081615Z 00010KT M02/M02 A3034 RMK A01 T10161022  RH  097%=      5-min Rain = 0
KPFS 081620Z 36011KT M02/M02 A3035 RMK A01 T10161022  RH  097%=      5-min Rain = 0
KPFS 081625Z 36009KT M02/M02 A3035 RMK A01 T10161022  RH  097%=      5-min Rain = 0
KPFS 081630Z 36010KT M02/M02 A3035 RMK A01 T10151021  RH  097%=      5-min Rain = 0
KPFS 081635Z 36010KT M02/M02 A3035 RMK A01 T10151020  RH  097%=      5-min Rain = 0
KPFS 081640Z 35008KT M01/M02 A3035 RMK A01 T10141020  RH  097%=      5-min Rain = 0
KPFS 081645Z 34008KT M01/M02 A3035 RMK A01 T10141020  RH  097%=      5-min Rain = 0
KPFS 081650Z 34008KT M01/M02 A3035 RMK A01 T10131019  RH  097%=      5-min Rain = 0
KPFS 081655Z 33009KT M01/M02 A3035 RMK A01 T10131019  RH  097%=      5-min Rain = 0
KPFS 081700Z 34009KT M01/M02 A3035 RMK A01 T10141019  RH  097%=      5-min Rain = 0
KPFS 081705Z 34010KT M01/M02 A3035 RMK A01 T10141019  RH  097%=      5-min Rain = 0
KPFS 081710Z 35012KT M01/M02 A3035 RMK A01 T10141020  RH  097%=      5-min Rain = 0
KPFS 081715Z 35010KT M02/M02 A3035 RMK A01 T10151020  RH  097%=      5-min Rain = 0
KPFS 081720Z 35010KT M02/M02 A3035 RMK A01 T10161021  RH  097%=      5-min Rain = 0
KPFS 081725Z 34009KT M02/M02 A3035 RMK A01 T10161021  RH  097%=      5-min Rain = 0
KPFS 081730Z 34010G15KT M02/M02 A3035 RMK A01 T10161021  RH  097%=      5-min Rain = 0
KPFS 081735Z 35011KT M02/M02 A3035 RMK A01 T10161022  RH  097%=      5-min Rain = 0
KPFS 081740Z 35010KT M02/M02 A3034 RMK A01 T10171022  RH  097%=      5-min Rain = 0
KPFS 081745Z 34010KT M02/M02 A3034 RMK A01 T10161022  RH  097%=      5-min Rain = 0
KPFS 081750Z 34010KT M02/M02 A3034 RMK A01 T10161022  RH  097%=      5-min Rain = 0
KPFS 081755Z 34010KT M02/M02 A3034 RMK A01 T10161021  RH  097%=      5-min Rain = 0
KPFS 081800Z 34011KT M02/M02 A3033 RMK A01 T10151021  RH  097%=      5-min Rain = 0
KPFS 081805Z 35010KT M02/M02 A3033 RMK A01 T10151021  RH  097%=      5-min Rain = 0
KPFS 081810Z 35010KT M01/M02 A3033 RMK A01 T10141020  RH  097%=      5-min Rain = 0
KPFS 081815Z 36010KT M01/M02 A3032 RMK A01 T10131019  RH  097%=      5-min Rain = 0
KPFS 081820Z 36011KT M01/M02 A3032 RMK A01 T10121018  RH  097%=      5-min Rain = 0
KPFS 081825Z 36010KT M01/M02 A3032 RMK A01 T10111017  RH  097%=      5-min Rain = 0
KPFS 081830Z 36009KT M01/M02 A3032 RMK A01 T10101016  RH  097%=      5-min Rain = 0
KPFS 081835Z 36008KT M01/M02 A3031 RMK A01 T10091015  RH  097%=      5-min Rain = 0
KPFS 081840Z 36008KT M01/M01 A3031 RMK A01 T10081014  RH  097%=      5-min Rain = 0
KPFS 081845Z 35008KT M01/M01 A3031 RMK A01 T10081013  RH  097%=      5-min Rain = 0
KPFS 081850Z 34008KT M01/M01 A3031 RMK A01 T10071013  RH  097%=      5-min Rain = 0
KPFS 081855Z 34007KT M01/M01 A303 RMK A01 T10071013  RH  097%=      5-min Rain = 0
KPFS 081900Z 34007KT M01/M01 A303 RMK A01 T10071012  RH  097%=      5-min Rain = 0
KPFS 081905Z 33008KT M01/M01 A303 RMK A01 T10061012  RH  097%=      5-min Rain = 0
KPFS 081910Z 33008KT M01/M01 A303 RMK A01 T10061012  RH  097%=      5-min Rain = 0.01
KPFS 081915Z 33009KT M01/M01 A303 RMK A01 T10061012  RH  097%=      5-min Rain = 0
KPFS 081920Z 33009KT M01/M01 A3029 RMK A01 T10061012  RH  097%=      5-min Rain = 0.01
KPFS 081925Z 33009KT M01/M01 A3029 RMK A01 T10061012  RH  097%=      5-min Rain = 0.01
KPFS 081930Z 34010KT M01/M01 A3029 RMK A01 T10061012  RH  097%=      5-min Rain = 0
KPFS 081935Z 34009KT M01/M01 A3029 RMK A01 T10071012  RH  097%=      5-min Rain = 0.02
KPFS 081940Z 34009KT M01/M01 A3028 RMK A01 T10071012  RH  097%=      5-min Rain = 0
KPFS 081945Z 34010KT M01/M01 A3028 RMK A01 T10071012  RH  097%=      5-min Rain = 0
KPFS 081950Z 34009KT M01/M01 A3028 RMK A01 T10071012  RH  097%=      5-min Rain = 0.01
KPFS 081955Z 34009KT M01/M01 A3028 RMK A01 T10071012  RH  097%=      5-min Rain = 0.01
KPFS 082000Z 34008KT M01/M01 A3028 RMK A01 T10071012  RH  097%=      5-min Rain = 0
KPFS 082005Z 34008KT M01/M01 A3027 RMK A01 T10071012  RH  097%=      5-min Rain = 0.01
KPFS 082010Z 34008KT M01/M01 A3027 RMK A01 T10071012  RH  097%=      5-min Rain = 0.01
KPFS 082015Z 33007KT M01/M01 A3028 RMK A01 T10071012  RH  097%=      5-min Rain = 0
KPFS 082020Z 34006KT M01/M01 A3027 RMK A01 T10071012  RH  097%=      5-min Rain = 0.01
KPFS 082025Z 34007KT M01/M01 A3027 RMK A01 T10071012  RH  097%=      5-min Rain = 0.01
KPFS 082030Z 33008KT M01/M01 A3027 RMK A01 T10061011  RH  097%=      5-min Rain = 0.01
KPFS 082035Z 34009KT M01/M01 A3027 RMK A01 T10071012  RH  097%=      5-min Rain = 0.01
KPFS 082040Z 34009KT M01/M01 A3027 RMK A01 T10071012  RH  097%=      5-min Rain = 0.01
KPFS 082045Z 34009KT M01/M01 A3027 RMK A01 T10071012  RH  097%=      5-min Rain = 0.01
KPFS 082050Z 34009KT M01/M01 A3027 RMK A01 T10071012  RH  097%=      5-min Rain = 0.01
KPFS 082055Z 34007KT M01/M01 A3027 RMK A01 T10071012  RH  097%=      5-min Rain = 0.01
KPFS 082100Z 34007KT M01/M01 A3027 RMK A01 T10061011  RH  097%=      5-min Rain = 0
KPFS 082105Z 33007KT M01/M01 A3027 RMK A01 T10061011  RH  097%=      5-min Rain = 0.01
KPFS 082110Z 34007KT M01/M01 A3027 RMK A01 T10061011  RH  097%=      5-min Rain = 0.01
KPFS 082115Z 34007KT M01/M01 A3027 RMK A01 T10061011  RH  097%=      5-min Rain = 0.01
KPFS 082120Z 34007KT M01/M01 A3027 RMK A01 T10061011  RH  097%=      5-min Rain = 0.01
KPFS 082125Z 33008KT M01/M01 A3027 RMK A01 T10061011  RH  097%=      5-min Rain = 0.01
KPFS 082130Z 34007KT M01/M01 A3027 RMK A01 T10071012  RH  097%=      5-min Rain = 0
KPFS 082135Z 34006KT M01/M01 A3027 RMK A01 T10071011  RH  098%=      5-min Rain = 0.01
KPFS 082140Z 33007KT M01/M01 A3027 RMK A01 T10071012  RH  098%=      5-min Rain = 0.01
KPFS 082145Z 34006KT M01/M01 A3026 RMK A01 T10071012  RH  098%=      5-min Rain = 0.01
KPFS 082150Z 33006KT M01/M01 A3026 RMK A01 T10071012  RH  098%=      5-min Rain = 0
KPFS 082155Z 33005KT M01/M01 A3026 RMK A01 T10071012  RH  098%=      5-min Rain = 0.01
KPFS 082200Z 33005KT M01/M01 A3027 RMK A01 T10071012  RH  098%=      5-min Rain = 0.01
KPFS 082205Z 33005KT M01/M01 A3027 RMK A01 T10071012  RH  098%=      5-min Rain = 0
KPFS 082210Z 33005KT M01/M01 A3026 RMK A01 T10071012  RH  098%=      5-min Rain = 0.01
KPFS 082215Z 32005KT M01/M01 A3026 RMK A01 T10071012  RH  098%=      5-min Rain = 0.01
KPFS 082220Z 33005KT M01/M01 A3026 RMK A01 T10071011  RH  098%=      5-min Rain = 0
KPFS 082225Z 33005KT M01/M01 A3026 RMK A01 T10061011  RH  098%=      5-min Rain = 0.01
KPFS 082230Z 32004KT M01/M01 A3026 RMK A01 T10061011  RH  098%=      5-min Rain = 0
KPFS 082235Z 32005KT M01/M01 A3026 RMK A01 T10061010  RH  098%=      5-min Rain = 0.01
KPFS 082240Z 32005KT M01/M01 A3026 RMK A01 T10051010  RH  098%=      5-min Rain = 0
KPFS 082245Z 33004KT M01/M01 A3026 RMK A01 T10051010  RH  098%=      5-min Rain = 0
KPFS 082250Z 33003KT M01/M01 A3027 RMK A01 T10051010  RH  098%=      5-min Rain = 0.01
KPFS 082255Z 33003KT M01/M01 A3027 RMK A01 T10051009  RH  098%=      5-min Rain = 0
KPFS 082300Z 32003KT M00/M01 A3027 RMK A01 T10041009  RH  098%=      5-min Rain = 0
KPFS 082305Z 31002KT M00/M01 A3027 RMK A01 T10041009  RH  098%=      5-min Rain = 0.01
KPFS 082310Z 32002KT M00/M01 A3027 RMK A01 T10041008  RH  098%=      5-min Rain = 0
KPFS 082315Z 30002KT M00/M01 A3027 RMK A01 T10041008  RH  098%=      5-min Rain = 0
KPFS 082320Z 28001KT M00/M01 A3027 RMK A01 T10031008  RH  098%=      5-min Rain = 0
KPFS 082325Z 20002KT M00/M01 A3027 RMK A01 T10031008  RH  098%=      5-min Rain = 0
KPFS 082330Z 19003KT M00/M01 A3027 RMK A01 T10041008  RH  098%=      5-min Rain = 0
KPFS 082335Z 20003KT M01/M01 A3027 RMK A01 T10051009  RH  098%=      5-min Rain = 0
KPFS 082340Z 23002KT M01/M01 A3027 RMK A01 T10051010  RH  098%=      5-min Rain = 0
KPFS 082345Z 25003KT M01/M01 A3027 RMK A01 T10051010  RH  098%=      5-min Rain = 0
KPFS 082350Z 27004KT M01/M01 A3027 RMK A01 T10061010  RH  098%=      5-min Rain = 0
KPFS 082355Z 28004KT M01/M01 A3027 RMK A01 T10071011  RH  098%=      5-min Rain = 0
KPFS 090000Z 29005KT M01/M01 A3027 RMK A01 T10081012  RH  098%=      5-min Rain = 0
KPFS 090005Z 29005KT M01/M01 A3027 RMK A01 T10091014  RH  098%=      5-min Rain = 0
KPFS 090010Z 29004KT M01/M02 A3027 RMK A01 T10111015  RH  098%=      5-min Rain = 0
KPFS 090015Z 27003KT M01/M02 A3027 RMK A01 T10131017  RH  098%=      5-min Rain = 0
KPFS 090020Z 26002KT M01/M02 A3027 RMK A01 T10141018  RH  098%=      5-min Rain = 0
KPFS 090025Z 27002KT M02/M02 A3027 RMK A01 T10151019  RH  098%=      5-min Rain = 0
KPFS 090030Z 27002KT M02/M02 A3027 RMK A01 T10161020  RH  098%=      5-min Rain = 0
KPFS 090035Z 26002KT M02/M02 A3027 RMK A01 T10151020  RH  098%=      5-min Rain = 0
KPFS 090040Z 25002KT M02/M02 A3027 RMK A01 T10151019  RH  098%=      5-min Rain = 0
KPFS 090045Z 25003KT M02/M02 A3027 RMK A01 T10151020  RH  098%=      5-min Rain = 0
KPFS 090050Z 24003KT M02/M02 A3027 RMK A01 T10161020  RH  098%=      5-min Rain = 0
KPFS 090055Z 24003KT M02/M02 A3027 RMK A01 T10171021  RH  098%=      5-min Rain = 0
KPFS 090100Z 24003KT M02/M02 A3028 RMK A01 T10181023  RH  097%=      5-min Rain = 0
KPFS 090105Z 24003KT M02/M02 A3028 RMK A01 T10191024  RH  097%=      5-min Rain = 0
KPFS 090110Z 25003KT M02/M03 A3028 RMK A01 T10211025  RH  097%=      5-min Rain = 0
KPFS 090115Z 26003KT M02/M03 A3028 RMK A01 T10211026  RH  097%=      5-min Rain = 0
KPFS 090120Z 26003KT M02/M03 A3028 RMK A01 T10221027  RH  097%=      5-min Rain = 0
KPFS 090125Z 26003KT M02/M03 A3029 RMK A01 T10241029  RH  097%=      5-min Rain = 0
KPFS 090130Z 26003KT M03/M03 A3029 RMK A01 T10261032  RH  097%=      5-min Rain = 0
KPFS 090135Z 27003KT M03/M03 A3029 RMK A01 T10281034  RH  097%=      5-min Rain = 0
KPFS 090140Z 27003KT M03/M03 A3029 RMK A01 T10291034  RH  096%=      5-min Rain = 0
KPFS 090145Z 27003KT M03/M03 A3029 RMK A01 T10281034  RH  096%=      5-min Rain = 0
KPFS 090150Z 27002KT M03/M03 A3029 RMK A01 T10271033  RH  096%=      5-min Rain = 0
KPFS 090155Z 27003KT M03/M03 A3029 RMK A01 T10261032  RH  096%=      5-min Rain = 0
KPFS 090200Z 27003KT M03/M03 A3029 RMK A01 T10261032  RH  096%=      5-min Rain = 0
KPFS 090205Z 25002KT M03/M03 A3029 RMK A01 T10271033  RH  096%=      5-min Rain = 0
KPFS 090210Z 24002KT M03/M03 A3029 RMK A01 T10271034  RH  096%=      5-min Rain = 0
KPFS 090215Z 25002KT M03/M04 A3029 RMK A01 T10281035  RH  096%=      5-min Rain = 0
KPFS 090220Z 24002KT M03/M04 A3029 RMK A01 T10281035  RH  096%=      5-min Rain = 0
KPFS 090225Z 24002KT M03/M04 A3029 RMK A01 T10291035  RH  096%=      5-min Rain = 0
KPFS 090230Z 25002KT M03/M04 A3029 RMK A01 T10291035  RH  096%=      5-min Rain = 0
KPFS 090235Z 25002KT M03/M04 A3029 RMK A01 T10281035  RH  096%=      5-min Rain = 0
KPFS 090240Z 25002KT M03/M04 A3029 RMK A01 T10281035  RH  096%=      5-min Rain = 0
KPFS 090245Z 26002KT M03/M04 A3029 RMK A01 T10281035  RH  096%=      5-min Rain = 0
KPFS 090250Z 28002KT M03/M04 A3029 RMK A01 T10281035  RH  096%=      5-min Rain = 0
KPFS 090255Z 29002KT M03/M03 A3029 RMK A01 T10281034  RH  096%=      5-min Rain = 0
KPFS 090300Z 31002KT M03/M03 A3029 RMK A01 T10271034  RH  096%=      5-min Rain = 0
KPFS 090305Z 29002KT M03/M03 A3029 RMK A01 T10271034  RH  096%=      5-min Rain = 0
KPFS 090310Z 28002KT M03/M03 A3029 RMK A01 T10271034  RH  096%=      5-min Rain = 0
KPFS 090315Z 27002KT M03/M03 A3029 RMK A01 T10281034  RH  096%=      5-min Rain = 0
KPFS 090320Z 26002KT M03/M04 A3029 RMK A01 T10281035  RH  096%=      5-min Rain = 0
KPFS 090325Z 24002KT M03/M04 A3029 RMK A01 T10291036  RH  096%=      5-min Rain = 0
KPFS 090330Z 25001KT M03/M04 A303 RMK A01 T10311038  RH  095%=      5-min Rain = 0
KPFS 090335Z 26001KT M03/M04 A303 RMK A01 T10321039  RH  095%=      5-min Rain = 0
KPFS 090340Z 26001KT M03/M04 A303 RMK A01 T10331040  RH  095%=      5-min Rain = 0
KPFS 090345Z 26001KT M03/M04 A303 RMK A01 T10331040  RH  095%=      5-min Rain = 0
KPFS 090350Z 22002KT M03/M04 A303 RMK A01 T10341041  RH  095%=      5-min Rain = 0
KPFS 090355Z 21002KT M04/M04 A303 RMK A01 T10351042  RH  095%=      5-min Rain = 0
KPFS 090400Z 23001KT M04/M04 A303 RMK A01 T10361043  RH  095%=      5-min Rain = 0
KPFS 090405Z 24000KT M04/M04 A303 RMK A01 T10361044  RH  095%=      5-min Rain = 0
KPFS 090410Z 27001KT M04/M04 A303 RMK A01 T10351043  RH  095%=      5-min Rain = 0
KPFS 090415Z 29000KT M03/M04 A303 RMK A01 T10331041  RH  095%=      5-min Rain = 0
KPFS 090420Z 27001KT M03/M04 A303 RMK A01 T10331040  RH  095%=      5-min Rain = 0
KPFS 090425Z 25002KT M03/M04 A303 RMK A01 T10321040  RH  095%=      5-min Rain = 0
KPFS 090430Z 23002KT M03/M04 A3031 RMK A01 T10341041  RH  095%=      5-min Rain = 0
KPFS 090435Z 23002KT M04/M05 A3031 RMK A01 T10381045  RH  095%=      5-min Rain = 0
KPFS 090440Z 23002KT M04/M05 A3031 RMK A01 T10401048  RH  095%=      5-min Rain = 0
KPFS 090445Z 24001KT M04/M05 A303 RMK A01 T10401048  RH  094%=      5-min Rain = 0
KPFS 090450Z 28002KT M04/M05 A3031 RMK A01 T10391047  RH  094%=      5-min Rain = 0
KPFS 090455Z 28003KT M04/M04 A3031 RMK A01 T10361044  RH  095%=      5-min Rain = 0
KPFS 090500Z 28002KT M04/M04 A3031 RMK A01 T10351043  RH  095%=      5-min Rain = 0
KPFS 090505Z 29002KT M04/M04 A3031 RMK A01 T10361044  RH  095%=      5-min Rain = 0
KPFS 090510Z 27001KT M04/M04 A3031 RMK A01 T10361043  RH  095%=      5-min Rain = 0
KPFS 090515Z 24001KT M04/M04 A3031 RMK A01 T10351043  RH  095%=      5-min Rain = 0
KPFS 090520Z 20002KT M04/M04 A3031 RMK A01 T10361043  RH  095%=      5-min Rain = 0
KPFS 090525Z 21002KT M04/M05 A3031 RMK A01 T10391046  RH  095%=      5-min Rain = 0
KPFS 090530Z 21002KT M04/M05 A3031 RMK A01 T10401048  RH  094%=      5-min Rain = 0
KPFS 090535Z 23002KT M04/M05 A3031 RMK A01 T10411049  RH  094%=      5-min Rain = 0
KPFS 090540Z 26002KT M04/M05 A3031 RMK A01 T10401049  RH  094%=      5-min Rain = 0
KPFS 090545Z 29002KT M04/M05 A3031 RMK A01 T10401048  RH  094%=      5-min Rain = 0
KPFS 090550Z 30001KT M04/M05 A3031 RMK A01 T10391047  RH  094%=      5-min Rain = 0
KPFS 090555Z 29002KT M04/M05 A3031 RMK A01 T10391047  RH  095%=      5-min Rain = 0

Page generated in 0.0251 seconds.